KAQO

Llano Municipal Airport

Llano, Texas, USA
METAR KAQO 221755Z AUTO 31008G16KT 10SM CLR 21/06 A3016 RMK AO2
Observed Flight Rules
Apr-22 @ 17:55 UTC (15 minutes ago) Visual Flight Rules
Wind Visibility Clouds
310° at 8 knots
 Gusting to 16 knots
10 miles
  • Clear skies
Temperatures Readings
Current 21°C / 70°F
Dewpoint 6°C / 43°F
Humidity 38%
Altimeter 30.16" Hg
Pressure 1021 hPa
Elevation 336
METAR KAQO 221755Z AUTO 31008G16KT 10SM CLR 21/06 A3016 RMK AO2
Observed Flight Rules
Apr-22 @ 17:55 UTC
(15 minutes ago)
VFR
Wind Visibility
310° at 8 knots
 Gusting to 16 knots
10 miles
Clouds
  • Clear skies
Temperature Dewpoint
21°C / 70°F 6°C / 43°F
Humidity Altimeter Pressure
38% 30.16" Hg 1021 hPa